Time;durP1;ratioP1;P1;durP2;ratioP2;P2;SDS_P1;SDS_P2;PMS_P1;PMS_P2;Temp;Humidity;BMP_temperature;BMP_pressure;BME280_temperature;BME280_humidity;BME280_pressure;Samples;Min_cycle;Max_cycle;Signal;HPM_P1;HPM_P2
2023/01/02 00:01:09;;;;;;;15.05;4.65;;;;;;;10.82;100.00;100909.81;5035990;28;20095;-80
2023/01/02 00:03:35;;;;;;;10.35;4.43;;;;;;;10.86;100.00;100910.22;5044851;28;20028;-80
2023/01/02 00:06:02;;;;;;;8.27;5.25;;;;;;;10.89;100.00;100907.97;5042818;28;20129;-79
2023/01/02 00:08:28;;;;;;;7.43;4.20;;;;;;;10.95;100.00;100904.53;5044611;28;20028;-80
2023/01/02 00:10:53;;;;;;;9.70;4.53;;;;;;;10.99;100.00;100899.63;5042237;28;20033;-80
2023/01/02 00:13:19;;;;;;;12.43;4.82;;;;;;;11.00;100.00;100909.25;5042288;28;20028;-80
2023/01/02 00:15:44;;;;;;;13.65;5.07;;;;;;;11.05;100.00;100911.34;5048490;28;20029;-80
2023/01/02 00:18:09;;;;;;;9.55;4.97;;;;;;;11.06;100.00;100924.50;5044901;28;20070;-80
2023/01/02 00:20:35;;;;;;;12.27;4.65;;;;;;;11.07;100.00;100922.66;5042307;28;20080;-80
2023/01/02 00:23:00;;;;;;;12.02;4.97;;;;;;;11.04;100.00;100907.03;5045648;28;20033;-80
2023/01/02 00:25:25;;;;;;;12.90;4.82;;;;;;;11.07;100.00;100904.78;5049102;28;20025;-79
2023/01/02 00:27:51;;;;;;;12.27;4.00;;;;;;;11.07;100.00;100904.78;5049542;28;20039;-80
2023/01/02 00:30:16;;;;;;;9.55;4.32;;;;;;;10.96;100.00;100892.00;5031733;28;20040;-80
2023/01/02 00:32:42;;;;;;;9.52;4.60;;;;;;;11.06;100.00;100905.00;5049525;28;20052;-80
2023/01/02 00:35:07;;;;;;;12.38;5.60;;;;;;;11.07;100.00;100901.28;5047335;28;20171;-80
2023/01/02 00:37:33;;;;;;;17.25;4.95;;;;;;;11.08;100.00;100901.09;5048145;28;20032;-80
2023/01/02 00:39:58;;;;;;;9.45;4.50;;;;;;;11.08;100.00;100889.59;5040833;28;20128;-80
2023/01/02 00:42:23;;;;;;;9.30;4.25;;;;;;;11.08;100.00;100892.25;5043751;28;20037;-80
2023/01/02 00:44:49;;;;;;;21.27;4.68;;;;;;;11.05;100.00;100884.66;5043237;28;20529;-80
2023/01/02 00:47:14;;;;;;;9.60;4.07;;;;;;;11.06;100.00;100895.13;5049075;28;20044;-80
2023/01/02 00:49:40;;;;;;;11.40;4.78;;;;;;;10.96;100.00;100878.66;5041380;28;20039;-80
2023/01/02 00:52:06;;;;;;;10.43;4.15;;;;;;;11.00;100.00;100879.09;5053502;28;20063;-80
2023/01/02 00:54:31;;;;;;;11.90;5.13;;;;;;;11.05;100.00;100882.78;5052903;28;20465;-80
2023/01/02 00:56:56;;;;;;;6.32;3.58;;;;;;;11.09;100.00;100885.91;5044731;28;20029;-80
2023/01/02 00:59:22;;;;;;;8.85;3.95;;;;;;;11.09;100.00;100877.91;5062181;28;20048;-80
2023/01/02 01:01:47;;;;;;;17.00;5.75;;;;;;;11.09;100.00;100873.38;5058071;28;20075;-80
2023/01/02 01:04:13;;;;;;;13.65;4.32;;;;;;;11.15;100.00;100877.91;5061672;28;20044;-80
2023/01/02 01:06:39;;;;;;;11.30;3.80;;;;;;;11.18;100.00;100868.69;5054450;28;20115;-80
2023/01/02 01:09:04;;;;;;;10.02;4.22;;;;;;;11.19;100.00;100876.50;5060144;28;20124;-80
2023/01/02 01:11:30;;;;;;;10.77;3.85;;;;;;;11.20;100.00;100861.31;5057929;28;20024;-80
2023/01/02 01:13:55;;;;;;;12.10;4.28;;;;;;;11.19;100.00;100865.00;5061306;28;20102;-80
2023/01/02 01:16:20;;;;;;;9.27;3.85;;;;;;;11.20;100.00;100858.63;5059724;28;20061;-80
2023/01/02 01:18:46;;;;;;;10.57;4.68;;;;;;;11.23;100.00;100862.75;5054070;28;20029;-80
2023/01/02 01:21:17;;;;;;;17.52;4.50;;;;;;;11.23;100.00;100860.06;5058326;28;20036;-80
2023/01/02 01:23:43;;;;;;;20.83;5.82;;;;;;;11.27;100.00;100861.34;5044908;28;20582;-80
2023/01/02 01:26:10;;;;;;;12.23;4.85;;;;;;;11.30;100.00;100853.75;5063501;28;20032;-80
2023/01/02 01:28:36;;;;;;;11.40;4.80;;;;;;;11.34;100.00;100854.16;5053797;28;20067;-80
2023/01/02 01:31:07;;;;;;;13.52;3.83;;;;;;;11.38;100.00;100861.56;5059517;28;20135;-80
2023/01/02 01:33:33;;;;;;;9.60;4.13;;;;;;;11.40;100.00;100859.53;5053673;28;20031;-80
2023/01/02 01:36:10;;;;;;;9.85;5.05;;;;;;;11.41;100.00;100863.81;5055738;28;20021;-80
2023/01/02 01:38:36;;;;;;;11.18;4.00;;;;;;;11.45;100.00;100863.41;5052785;28;20033;-80
2023/01/02 01:41:02;;;;;;;7.97;3.90;;;;;;;11.44;100.00;100867.94;5057606;28;20032;-80
2023/01/02 01:43:51;;;;;;;12.38;3.28;;;;;;;11.46;100.00;100860.56;5044081;28;20797;-80
2023/01/02 01:46:19;;;;;;;8.52;3.45;;;;;;;11.49;100.00;100872.69;5062358;28;20025;-80
2023/01/02 01:48:47;;;;;;;7.03;3.65;;;;;;;11.49;100.00;100867.34;5052285;28;20407;-80
2023/01/02 01:51:13;;;;;;;9.35;4.13;;;;;;;11.48;100.00;100871.88;5053699;28;20036;-80
2023/01/02 01:53:40;;;;;;;13.23;4.07;;;;;;;11.50;100.00;100868.97;5062521;28;20025;-80
2023/01/02 01:56:08;;;;;;;7.90;3.70;;;;;;;11.47;100.00;100872.88;5059778;28;20032;-80
2023/01/02 01:58:41;;;;;;;9.00;4.72;;;;;;;11.48;100.00;100873.72;5062725;28;20503;-80
2023/01/02 02:01:09;;;;;;;8.02;3.80;;;;;;;11.50;100.00;100885.00;5051643;28;20029;-80
2023/01/02 02:03:36;;;;;;;6.60;3.80;;;;;;;11.48;100.00;100877.22;5056702;28;20041;-80
2023/01/02 02:06:02;;;;;;;7.40;4.07;;;;;;;11.43;100.00;100876.97;5026958;28;20041;-80
2023/01/02 02:08:44;;;;;;;10.38;4.60;;;;;;;11.46;100.00;100873.91;5051934;28;20442;-80
2023/01/02 02:11:12;;;;;;;8.45;3.72;;;;;;;11.39;100.00;100867.72;5051260;28;20462;-80
2023/01/02 02:13:37;;;;;;;6.97;3.05;;;;;;;11.39;100.00;100879.22;5056578;28;20051;-80
2023/01/02 02:16:15;;;;;;;12.05;3.78;;;;;;;11.41;100.00;100877.16;5025536;28;20035;-80
2023/01/02 02:19:07;;;;;;;13.55;5.13;;;;;;;11.40;100.00;100880.88;5041861;28;20043;-80
2023/01/02 02:21:36;;;;;;;15.85;4.60;;;;;;;11.43;100.00;100873.50;5051218;28;20029;-80
2023/01/02 02:24:20;;;;;;;12.02;5.10;;;;;;;11.45;100.00;100884.78;5055119;28;20496;-80
2023/01/02 02:27:23;;;;;;;11.05;3.63;;;;;;;11.45;100.00;100876.75;5054018;28;20143;-80
2023/01/02 02:29:57;;;;;;;10.57;2.95;;;;;;;11.44;100.00;100883.16;5069936;28;20132;-73
2023/01/02 02:32:51;;;;;;;19.65;5.22;;;;;;;11.41;100.00;100879.84;5062313;28;20089;-74
2023/01/02 02:35:28;;;;;;;10.13;4.72;;;;;;;11.44;100.00;100885.81;5070608;28;20112;-74
2023/01/02 02:38:02;;;;;;;9.07;4.28;;;;;;;11.46;100.00;100876.56;5070538;28;20475;-74
2023/01/02 02:40:27;;;;;;;14.63;4.95;;;;;;;11.46;100.00;100878.44;5070194;28;20040;-74
2023/01/02 02:43:23;;;;;;;11.40;4.45;;;;;;;11.46;100.00;100873.09;5070394;28;20028;-74
2023/01/02 02:46:11;;;;;;;6.93;3.42;;;;;;;11.49;100.00;100880.69;5018708;28;20084;-74
2023/01/02 02:49:04;;;;;;;13.38;4.10;;;;;;;11.48;100.00;100869.19;5041549;28;20043;-74
2023/01/02 02:51:38;;;;;;;9.43;3.78;;;;;;;11.50;100.00;100872.50;5069914;28;20475;-74
2023/01/02 02:54:22;;;;;;;10.02;3.25;;;;;;;11.53;100.00;100876.59;5063604;28;20017;-74
2023/01/02 02:56:50;;;;;;;8.60;3.65;;;;;;;11.50;100.00;100861.81;5050436;28;20039;-74
2023/01/02 02:59:17;;;;;;;7.07;3.72;;;;;;;11.56;100.00;100876.19;5050138;28;20037;-74
2023/01/02 03:01:42;;;;;;;7.40;3.53;;;;;;;11.52;100.00;100881.09;5050384;28;20032;-74
2023/01/02 03:04:16;;;;;;;8.15;3.25;;;;;;;11.50;100.00;100879.66;5050288;28;20021;-74
2023/01/02 03:06:54;;;;;;;8.50;3.80;;;;;;;11.49;100.00;100881.50;5050181;28;20104;-74
2023/01/02 03:09:30;;;;;;;11.95;3.90;;;;;;;11.48;100.00;100879.88;5031340;28;20495;-74
2023/01/02 03:12:29;;;;;;;7.07;3.83;;;;;;;11.49;100.00;100870.81;5049850;28;20067;-74
2023/01/02 03:15:13;;;;;;;10.65;3.45;;;;;;;11.51;100.00;100865.28;5050066;28;20442;-74
2023/01/02 03:18:09;;;;;;;9.02;4.53;;;;;;;11.50;100.00;100874.31;5050041;28;20480;-73
2023/01/02 03:20:47;;;;;;;6.35;3.38;;;;;;;11.49;100.00;100868.16;5049965;28;20028;-74
2023/01/02 03:23:20;;;;;;;10.00;3.58;;;;;;;11.47;100.00;100861.38;5031891;28;20094;-74
2023/01/02 03:25:46;;;;;;;8.43;4.20;;;;;;;11.45;100.00;100860.75;5049753;28;20021;-74
2023/01/02 03:28:16;;;;;;;12.88;3.58;;;;;;;11.44;100.00;100867.13;5049916;28;20035;-74
2023/01/02 03:30:44;;;;;;;7.65;3.67;;;;;;;11.40;100.00;100870.19;5049866;28;20118;-73
2023/01/02 03:33:15;;;;;;;11.95;3.83;;;;;;;11.43;100.00;100868.97;5049795;28;20021;-74
2023/01/02 03:35:48;;;;;;;8.93;4.20;;;;;;;11.43;100.00;100865.47;5049720;28;20061;-73
2023/01/02 03:38:21;;;;;;;5.68;3.25;;;;;;;11.44;100.00;100867.94;5032411;28;20106;-74
2023/01/02 03:40:53;;;;;;;9.15;4.22;;;;;;;11.47;100.00;100866.72;5049593;28;20562;-73
2023/01/02 03:43:24;;;;;;;;;;;;;;;11.50;100.00;100874.31;5050121;28;20037;-73
2023/01/02 03:46:03;;;;;;;8.23;3.20;;;;;;;11.49;100.00;100872.69;5031866;28;19920;-73
2023/01/02 03:48:52;;;;;;;9.93;3.50;;;;;;;11.50;100.00;100876.97;5049192;28;20286;-73
2023/01/02 03:51:17;;;;;;;16.98;4.35;;;;;;;11.49;100.00;100886.03;5049125;28;20029;-74
2023/01/02 03:53:44;;;;;;;8.43;3.45;;;;;;;11.51;100.00;100887.47;5031636;28;20396;-74
2023/01/02 03:56:10;;;;;;;7.28;3.95;;;;;;;11.52;100.00;100889.13;5049475;28;20082;-74
2023/01/02 03:59:03;;;;;;;10.38;4.13;;;;;;;11.53;100.00;100888.09;5049262;28;20048;-74
2023/01/02 04:01:37;;;;;;;6.60;3.45;;;;;;;11.54;100.00;100888.94;5031527;28;20067;-73
2023/01/02 04:04:13;;;;;;;8.55;4.15;;;;;;;11.53;100.00;100889.97;5031341;28;20388;-74
2023/01/02 04:06:45;;;;;;;7.43;3.42;;;;;;;11.49;100.00;100889.53;5049333;28;20448;-74
2023/01/02 04:09:17;;;;;;;10.23;3.92;;;;;;;11.52;100.00;100889.13;5049318;28;20025;-74
2023/01/02 04:11:48;;;;;;;10.05;3.50;;;;;;;11.53;100.00;100893.44;5049480;28;20068;-74
2023/01/02 04:14:23;;;;;;;9.18;4.18;;;;;;;11.56;100.00;100889.56;5049452;28;20632;-73
2023/01/02 04:16:49;;;;;;;6.85;3.85;;;;;;;11.59;100.00;100894.47;5049330;28;20074;-74
2023/01/02 04:20:02;;;;;;;11.57;3.42;;;;;;;11.61;100.00;100898.59;5031381;28;20075;-74
2023/01/02 04:22:32;;;;;;;9.60;3.22;;;;;;;11.60;100.00;100906.81;4982072;28;20034;-73
2023/01/02 04:25:10;;;;;;;7.82;3.35;;;;;;;11.57;100.00;100907.22;5047144;28;20037;-74
2023/01/02 04:27:42;;;;;;;8.45;4.10;;;;;;;11.48;100.00;100898.56;5053194;28;20040;-74
2023/01/02 04:30:07;;;;;;;;;;;;;;;11.54;100.00;100912.97;5053711;28;20025;-74
2023/01/02 04:32:39;;;;;;;7.55;4.05;;;;;;;11.50;100.00;100909.03;5053169;28;20390;-74
2023/01/02 04:35:10;;;;;;;10.02;3.70;;;;;;;11.48;100.00;100908.44;5053023;28;20115;-74
2023/01/02 04:37:38;;;;;;;12.63;4.20;;;;;;;11.46;100.00;100903.28;5035118;28;20033;-74
2023/01/02 04:40:20;;;;;;;11.20;3.45;;;;;;;11.40;100.00;100910.25;5052973;28;20024;-74
2023/01/02 04:42:46;;;;;;;6.85;3.72;;;;;;;11.45;100.00;100914.16;5034944;28;20070;-74
2023/01/02 04:45:12;;;;;;;10.18;4.57;;;;;;;11.43;100.00;100925.06;5034884;28;20032;-74
2023/01/02 04:47:37;;;;;;;5.43;3.17;;;;;;;11.40;100.00;100915.59;5052842;28;20399;-73
2023/01/02 04:50:04;;;;;;;10.73;3.67;;;;;;;11.45;100.00;100927.50;5052815;28;20029;-74
2023/01/02 04:52:30;;;;;;;7.95;4.63;;;;;;;11.39;100.00;100919.28;5052780;28;20041;-73
2023/01/02 04:54:55;;;;;;;11.48;3.63;;;;;;;11.41;100.00;100925.25;5034801;28;20380;-74
2023/01/02 04:57:21;;;;;;;11.48;4.38;;;;;;;11.44;100.00;100928.53;5052763;28;20028;-74
2023/01/02 04:59:46;;;;;;;8.43;3.80;;;;;;;11.40;100.00;100928.13;5052514;28;20063;-74
2023/01/02 05:02:11;;;;;;;9.95;3.30;;;;;;;11.40;100.00;100928.94;5034798;28;20982;-74
2023/01/02 05:04:37;;;;;;;10.50;4.70;;;;;;;11.39;100.00;100932.63;5052651;28;20064;-74
2023/01/02 05:07:03;;;;;;;9.63;3.83;;;;;;;11.41;100.00;100938.59;5052491;28;20040;-73
2023/01/02 05:09:28;;;;;;;10.50;3.90;;;;;;;11.41;100.00;100941.25;5052389;28;20033;-74
2023/01/02 05:11:53;;;;;;;7.50;4.05;;;;;;;11.44;100.00;100931.22;5052483;28;20087;-74
2023/01/02 05:14:19;;;;;;;11.77;5.28;;;;;;;11.44;100.00;100950.72;5052248;28;20025;-74
2023/01/02 05:16:44;;;;;;;16.13;4.97;;;;;;;11.47;100.00;100944.97;5052349;28;20111;-74
2023/01/02 05:19:10;;;;;;;8.57;3.60;;;;;;;11.50;100.00;100938.41;5034325;28;20075;-73
2023/01/02 05:24:20;;;;;;;6.30;3.63;;;;;;;11.49;100.00;100948.28;5052320;28;20091;-74
2023/01/02 05:26:45;;;;;;;5.78;3.28;;;;;;;11.51;100.00;100951.59;5052106;28;20058;-74
2023/01/02 05:29:10;;;;;;;7.60;3.20;;;;;;;11.55;100.00;100954.66;5034230;28;20028;-74
2023/01/02 05:31:35;;;;;;;5.75;2.95;;;;;;;11.55;100.00;100952.00;5051038;28;20029;-74
2023/01/02 05:34:01;;;;;;;11.13;4.53;;;;;;;11.54;100.00;100961.03;5034132;28;20052;-74
2023/01/02 05:36:27;;;;;;;10.30;5.15;;;;;;;11.56;100.00;100953.66;5051964;28;20041;-74
2023/01/02 05:38:52;;;;;;;7.80;3.00;;;;;;;11.56;100.00;100959.81;5051939;28;20586;-74
2023/01/02 05:41:19;;;;;;;10.07;3.28;;;;;;;11.54;100.00;100958.38;5034073;28;20032;-73
2023/01/02 05:43:44;;;;;;;5.47;2.88;;;;;;;11.56;100.00;100959.81;5033919;28;20502;-74
2023/01/02 05:46:15;;;;;;;9.77;3.20;;;;;;;11.59;100.00;100971.94;5034044;28;20032;-74
2023/01/02 05:48:41;;;;;;;4.82;2.72;;;;;;;11.55;100.00;100974.22;5033713;28;20050;-74
2023/01/02 05:51:09;;;;;;;8.15;3.15;;;;;;;11.62;100.00;100977.72;5033722;28;20033;-74
2023/01/02 05:53:35;;;;;;;5.78;2.80;;;;;;;11.61;100.00;100984.09;5051647;28;20045;-74
2023/01/02 05:56:07;;;;;;;4.65;2.90;;;;;;;11.65;100.00;100997.03;5051518;28;20021;-74
2023/01/02 05:58:38;;;;;;;8.20;2.97;;;;;;;11.66;100.00;100986.16;5033498;28;20550;-74
2023/01/02 06:01:09;;;;;;;5.90;3.25;;;;;;;11.65;100.00;100983.69;5051411;28;20448;-74
2023/01/02 06:03:35;;;;;;;6.70;2.60;;;;;;;11.67;100.00;100987.81;5051196;28;20076;-74
2023/01/02 06:06:05;;;;;;;7.00;2.40;;;;;;;11.66;100.00;100996.84;5051429;28;20064;-74
2023/01/02 06:08:31;;;;;;;6.47;2.97;;;;;;;11.63;100.00;100989.22;5051396;28;20128;-74
2023/01/02 06:10:56;;;;;;;5.82;2.80;;;;;;;11.64;100.00;100993.56;5051214;28;20609;-80
2023/01/02 06:13:21;;;;;;;3.08;2.00;;;;;;;11.67;100.00;100986.97;5051884;28;20032;-80
2023/01/02 06:15:47;;;;;;;3.97;2.90;;;;;;;11.66;100.00;100996.00;5052015;28;20487;-80
2023/01/02 06:18:12;;;;;;;4.13;2.08;;;;;;;11.69;100.00;100995.63;5051868;28;20021;-80
2023/01/02 06:20:37;;;;;;;8.45;2.70;;;;;;;11.64;100.00;100990.88;5033751;28;20047;-80
2023/01/02 06:23:03;;;;;;;6.03;3.05;;;;;;;11.62;100.00;101004.44;5051646;28;20112;-80
2023/01/02 06:25:28;;;;;;;6.78;2.70;;;;;;;11.60;100.00;101016.31;5051437;28;20067;-80
2023/01/02 06:27:53;;;;;;;7.80;2.13;;;;;;;11.53;100.00;101013.66;5051537;28;20247;-80
2023/01/02 06:30:19;;;;;;;4.90;2.45;;;;;;;11.47;100.00;101017.09;5051561;28;20040;-80
2023/01/02 06:32:44;;;;;;;6.25;2.65;;;;;;;11.42;100.00;101027.53;5033416;28;20480;-80
2023/01/02 06:35:09;;;;;;;7.38;2.40;;;;;;;11.38;100.00;101021.78;5033489;28;20480;-80
2023/01/02 06:37:35;;;;;;;4.47;2.50;;;;;;;11.35;100.00;101032.88;5051612;28;20543;-80
2023/01/02 06:40:00;;;;;;;13.50;3.63;;;;;;;11.29;100.00;101036.34;5051547;28;20031;-80
2023/01/02 06:42:25;;;;;;;7.90;3.58;;;;;;;11.25;100.00;101066.28;5051324;28;20053;-80
2023/01/02 06:44:51;;;;;;;5.78;2.20;;;;;;;11.19;100.00;101100.75;5033183;28;20480;-79
2023/01/02 06:47:16;;;;;;;1.75;1.30;;;;;;;10.94;100.00;101096.84;5050989;28;20389;-80
2023/01/02 06:49:42;;;;;;;3.13;0.90;;;;;;;10.75;100.00;101107.16;5016443;28;20025;-80
2023/01/02 06:52:07;;;;;;;1.27;1.10;;;;;;;10.61;100.00;101108.06;5050922;28;20056;-80
2023/01/02 06:54:32;;;;;;;2.58;0.85;;;;;;;10.51;100.00;101129.72;5050913;28;20484;-80
2023/01/02 06:56:58;;;;;;;0.55;0.55;;;;;;;10.34;100.00;101128.28;5050587;28;20391;-80
2023/01/02 06:59:23;;;;;;;0.73;0.73;;;;;;;10.32;100.00;101138.31;5016669;28;20400;-80
2023/01/02 07:01:48;;;;;;;0.52;0.52;;;;;;;10.21;100.00;101144.09;5032865;28;20087;-80
2023/01/02 07:04:17;;;;;;;0.88;0.60;;;;;;;10.11;100.00;101141.72;5032847;28;20068;-80
2023/01/02 07:06:42;;;;;;;0.65;0.52;;;;;;;10.09;100.00;101155.25;5032981;28;20051;-80
2023/01/02 07:09:07;;;;;;;0.82;0.50;;;;;;;10.06;100.00;101168.94;5050733;28;20025;-80
2023/01/02 07:11:34;;;;;;;0.95;0.80;;;;;;;9.99;100.00;101175.19;5050647;28;20032;-80
2023/01/02 07:14:00;;;;;;;0.60;0.60;;;;;;;9.86;100.00;101167.84;5050715;28;20031;-80
2023/01/02 07:16:25;;;;;;;1.20;0.70;;;;;;;9.91;100.00;101186.78;5050646;28;20025;-80
2023/01/02 07:18:52;;;;;;;0.95;0.68;;;;;;;9.82;100.00;101188.72;5050796;28;20479;-80
2023/01/02 07:21:18;;;;;;;1.02;0.80;;;;;;;9.81;100.00;101204.88;5050579;28;20387;-81
2023/01/02 07:23:43;;;;;;;1.45;1.20;;;;;;;9.80;100.00;101197.91;5050417;28;20029;-80
2023/01/02 07:26:10;;;;;;;1.55;1.45;;;;;;;9.75;100.00;101214.41;5050525;28;20040;-80
2023/01/02 07:28:36;;;;;;;2.15;1.75;;;;;;;9.72;100.00;101220.13;5050489;28;20480;-80
2023/01/02 07:31:04;;;;;;;1.83;1.42;;;;;;;9.67;100.00;101225.16;5050080;28;20078;-80
2023/01/02 07:33:30;;;;;;;2.38;1.60;;;;;;;9.66;100.00;101229.63;5050261;28;20029;-80
2023/01/02 07:35:58;;;;;;;1.60;1.50;;;;;;;9.64;100.00;101245.00;5050241;28;20479;-80
2023/01/02 07:38:23;;;;;;;1.83;1.30;;;;;;;9.62;100.00;101254.16;5050376;28;20422;-80
2023/01/02 07:40:48;;;;;;;3.50;1.95;;;;;;;9.60;100.00;101250.84;5050446;28;20033;-81
2023/01/02 07:43:14;;;;;;;3.83;1.95;;;;;;;9.58;100.00;101258.19;5032324;28;20045;-81
2023/01/02 07:45:39;;;;;;;3.92;1.98;;;;;;;9.57;100.00;101253.88;5050197;28;20033;-80
2023/01/02 07:48:04;;;;;;;3.70;1.92;;;;;;;9.57;100.00;101267.19;5049620;28;20040;-80
2023/01/02 07:50:30;;;;;;;6.05;2.17;;;;;;;9.56;100.00;101271.69;5049703;28;20033;-80
2023/01/02 07:52:55;;;;;;;4.63;2.58;;;;;;;9.56;100.00;101276.16;5049900;28;20973;-80
2023/01/02 07:55:20;;;;;;;4.35;2.10;;;;;;;9.54;100.00;101280.88;5049601;28;20020;-81
2023/01/02 07:57:49;;;;;;;2.92;1.55;;;;;;;9.54;100.00;101289.69;5049930;28;20121;-80
2023/01/02 08:00:16;;;;;;;2.22;1.63;;;;;;;9.55;100.00;101306.47;5050140;28;20063;-78
2023/01/02 08:02:41;;;;;;;2.55;1.50;;;;;;;9.54;100.00;101312.81;5049754;28;20033;-80
2023/01/02 08:05:07;;;;;;;2.55;1.75;;;;;;;9.50;100.00;101300.84;5049988;28;20059;-80
2023/01/02 08:07:32;;;;;;;2.67;1.75;;;;;;;9.53;100.00;101309.31;5049660;28;20029;-80
2023/01/02 08:09:57;;;;;;;3.47;1.83;;;;;;;9.52;100.00;101323.63;5032234;28;20463;-79
2023/01/02 08:12:23;;;;;;;4.15;2.22;;;;;;;9.48;100.00;101321.50;5049357;28;20038;-79
2023/01/02 08:14:48;;;;;;;5.38;2.22;;;;;;;9.46;100.00;101324.38;5026556;28;20039;-79
2023/01/02 08:17:13;;;;;;;2.47;1.70;;;;;;;9.51;100.00;101345.09;5049262;28;20063;-78
2023/01/02 08:19:39;;;;;;;2.08;1.30;;;;;;;9.47;100.00;101352.63;5049829;28;20025;-78
2023/01/02 08:22:05;;;;;;;4.22;1.98;;;;;;;9.44;100.00;101359.13;5049838;28;20045;-78
2023/01/02 08:24:30;;;;;;;3.67;2.10;;;;;;;9.39;100.00;101361.50;5049699;28;20047;-78
2023/01/02 08:26:56;;;;;;;4.55;2.10;;;;;;;9.40;100.00;101362.31;5049821;28;20052;-78
2023/01/02 08:29:21;;;;;;;3.78;1.40;;;;;;;9.37;100.00;101366.16;5049692;28;20044;-78
2023/01/02 08:31:47;;;;;;;2.05;1.17;;;;;;;9.36;100.00;101369.84;5049580;28;20037;-78
2023/01/02 08:34:13;;;;;;;2.33;1.63;;;;;;;9.25;100.00;101356.09;5049591;28;20036;-78
2023/01/02 08:36:40;;;;;;;3.78;1.45;;;;;;;9.31;100.00;101380.19;5049608;28;20585;-78
2023/01/02 08:39:05;;;;;;;2.97;1.60;;;;;;;9.28;100.00;101374.41;5049762;28;20476;-78
2023/01/02 08:41:38;;;;;;;2.13;1.45;;;;;;;9.28;100.00;101383.19;5049424;28;20021;-78
2023/01/02 08:44:05;;;;;;;3.17;1.48;;;;;;;9.27;100.00;101392.16;5049386;28;20021;-77
2023/01/02 08:46:32;;;;;;;2.78;1.70;;;;;;;9.27;100.00;101391.34;5049476;28;20075;-78
2023/01/02 08:48:57;;;;;;;2.20;1.10;;;;;;;9.25;100.00;101396.88;5049384;28;20471;-78
2023/01/02 08:51:23;;;;;;;2.75;1.40;;;;;;;9.26;100.00;101403.00;5049362;28;20037;-78
2023/01/02 08:53:49;;;;;;;1.38;1.23;;;;;;;9.23;100.00;101392.72;5049414;28;20025;-78
2023/01/02 08:56:29;;;;;;;2.15;1.30;;;;;;;9.21;100.00;101400.88;5031512;28;20029;-78
2023/01/02 08:58:57;;;;;;;2.05;1.30;;;;;;;9.20;100.00;101416.00;5049196;28;20060;-78
2023/01/02 09:01:25;;;;;;;5.40;1.83;;;;;;;9.24;100.00;101421.81;5049409;28;20025;-77
2023/01/02 09:03:51;;;;;;;3.20;1.60;;;;;;;9.24;100.00;101431.63;5049112;28;20120;-78
2023/01/02 09:06:16;;;;;;;3.38;1.60;;;;;;;9.23;100.00;101436.13;5049557;28;20104;-78
2023/01/02 09:08:42;;;;;;;2.97;1.80;;;;;;;9.19;100.00;101426.81;5034742;28;20043;-78
2023/01/02 09:11:13;;;;;;;2.85;1.92;;;;;;;9.18;100.00;101423.34;5052840;28;20403;-77
2023/01/02 09:13:38;;;;;;;4.73;2.30;;;;;;;9.24;100.00;101432.44;5052903;28;20086;-78
2023/01/02 09:16:04;;;;;;;6.45;3.50;;;;;;;9.20;100.00;101429.31;5052880;28;20041;-78
2023/01/02 09:18:30;;;;;;;6.30;3.60;;;;;;;9.30;100.00;101447.75;5052640;28;20104;-78
2023/01/02 09:20:55;;;;;;;6.30;3.38;;;;;;;9.30;100.00;101454.88;5052643;28;20091;-78
2023/01/02 09:23:21;;;;;;;7.18;4.10;;;;;;;9.31;100.00;101459.22;5034570;28;20044;-78
2023/01/02 09:25:46;;;;;;;8.23;3.78;;;;;;;9.31;100.00;101460.03;5052218;28;20079;-78
2023/01/02 09:28:11;;;;;;;9.25;4.00;;;;;;;9.31;100.00;101473.34;5052293;28;20032;-78
2023/01/02 09:30:37;;;;;;;6.88;3.50;;;;;;;9.29;100.00;101477.19;5052225;28;20057;-78
2023/01/02 09:33:02;;;;;;;6.65;3.47;;;;;;;9.30;100.00;101492.13;5033866;28;20385;-78
2023/01/02 09:35:27;;;;;;;9.30;3.20;;;;;;;9.28;100.00;101504.81;5051519;28;20082;-78
2023/01/02 09:37:53;;;;;;;6.32;3.67;;;;;;;9.25;100.00;101497.16;5033868;28;20033;-72
2023/01/02 09:40:18;;;;;;;5.50;3.53;;;;;;;9.27;100.00;101508.47;5051407;28;20495;-71
2023/01/02 09:42:44;;;;;;;7.35;3.40;;;;;;;9.21;100.00;101508.16;5051526;28;20543;-71
2023/01/02 09:45:11;;;;;;;6.15;3.60;;;;;;;9.22;100.00;101514.28;5033461;28;20487;-73
2023/01/02 09:47:39;;;;;;;5.47;3.22;;;;;;;9.24;100.00;101525.59;5051433;28;20124;-72
2023/01/02 09:50:12;;;;;;;6.78;3.28;;;;;;;9.29;100.00;101522.44;5051355;28;20506;-71
2023/01/02 09:52:41;;;;;;;7.93;3.20;;;;;;;9.28;100.00;101518.13;5051130;28;20033;-70
2023/01/02 09:55:15;;;;;;;8.00;3.85;;;;;;;9.33;100.00;101521.94;5051676;28;20031;-73
2023/01/02 09:58:01;;;;;;;8.95;3.30;;;;;;;9.42;100.00;101528.03;5051021;28;20056;-72
2023/01/02 10:00:34;;;;;;;11.85;3.78;;;;;;;9.42;100.00;101536.03;4983713;28;20051;-71
2023/01/02 10:03:14;;;;;;;12.38;3.50;;;;;;;9.50;100.00;101522.69;5051321;28;20095;-71
2023/01/02 10:05:50;;;;;;;8.30;3.47;;;;;;;9.53;100.00;101527.66;5051298;28;20025;-71
2023/01/02 10:08:51;;;;;;;5.93;3.22;;;;;;;9.53;100.00;101532.16;5051105;28;20777;-71
2023/01/02 10:11:34;;;;;;;6.18;2.80;;;;;;;9.50;100.00;101524.53;5051050;28;20036;-71
2023/01/02 10:14:05;;;;;;;7.85;4.05;;;;;;;9.47;100.00;101531.03;5050920;28;20093;-71
2023/01/02 10:16:39;;;;;;;7.32;2.78;;;;;;;9.42;100.00;101542.19;5051079;28;20112;-71
2023/01/02 10:19:17;;;;;;;7.70;3.08;;;;;;;9.42;100.00;101541.34;5032587;28;20069;-71
2023/01/02 10:21:45;;;;;;;9.20;2.60;;;;;;;9.40;100.00;101540.69;5050743;28;20025;-71
2023/01/02 10:24:17;;;;;;;6.65;2.33;;;;;;;9.42;100.00;101546.69;5032565;28;20024;-71
2023/01/02 10:26:47;;;;;;;;;;;;;;;9.46;100.00;101540.03;5051400;28;20063;-71
2023/01/02 10:29:16;;;;;;;6.70;2.78;;;;;;;9.43;100.00;101543.84;5050604;28;20367;-72
2023/01/02 10:31:51;;;;;;;5.88;3.38;;;;;;;9.44;100.00;101540.19;5050544;28;20518;-72
2023/01/02 10:34:19;;;;;;;7.65;3.42;;;;;;;9.47;100.00;101530.19;5032485;28;20506;-71
2023/01/02 10:36:46;;;;;;;9.75;3.70;;;;;;;9.47;100.00;101540.84;5043092;28;20036;-71
2023/01/02 10:39:16;;;;;;;5.97;3.42;;;;;;;9.51;100.00;101550.13;5018320;28;20519;-70
2023/01/02 10:41:46;;;;;;;7.22;3.60;;;;;;;9.51;100.00;101548.31;5044301;28;20032;-72
2023/01/02 10:44:32;;;;;;;5.30;2.67;;;;;;;9.55;100.00;101556.78;5026611;28;20031;-73
2023/01/02 10:47:09;;;;;;;7.18;3.72;;;;;;;9.52;100.00;101557.97;5044340;28;20027;-72
2023/01/02 10:49:36;;;;;;;6.15;3.05;;;;;;;9.53;100.00;101559.63;5027952;28;20130;-74
2023/01/02 10:52:34;;;;;;;6.93;3.47;;;;;;;9.53;100.00;101562.28;5043979;28;20029;-73
2023/01/02 10:55:00;;;;;;;8.35;3.78;;;;;;;9.51;100.00;101566.09;5043915;28;20021;-71
2023/01/02 10:57:35;;;;;;;4.88;2.90;;;;;;;9.52;100.00;101562.47;5026142;28;20025;-73
2023/01/02 11:00:03;;;;;;;8.23;3.17;;;;;;;9.50;100.00;101564.47;5044581;28;20556;-73
2023/01/02 11:02:35;;;;;;;7.03;2.80;;;;;;;9.50;100.00;101559.97;5044018;28;20124;-72
2023/01/02 11:05:02;;;;;;;6.63;3.15;;;;;;;9.51;100.00;101564.31;5043569;28;20112;-71
2023/01/02 11:07:31;;;;;;;4.75;2.80;;;;;;;9.51;100.00;101568.78;5043811;28;20400;-70
2023/01/02 11:09:57;;;;;;;7.35;3.75;;;;;;;9.55;100.00;101570.09;5044211;28;20028;-75
2023/01/02 11:12:23;;;;;;;7.75;3.47;;;;;;;9.49;100.00;101570.81;5044079;28;20032;-72
2023/01/02 11:14:49;;;;;;;7.45;3.20;;;;;;;9.51;100.00;101582.09;5043605;28;20024;-69
2023/01/02 11:17:16;;;;;;;7.50;3.70;;;;;;;9.53;100.00;101588.91;5043796;28;20384;-69
2023/01/02 11:19:46;;;;;;;10.35;4.72;;;;;;;9.58;100.00;101593.72;5043838;28;20397;-70
2023/01/02 11:22:14;;;;;;;5.47;3.33;;;;;;;9.65;100.00;101592.88;5043889;28;20025;-69
2023/01/02 11:25:02;;;;;;;10.88;5.20;;;;;;;9.62;100.00;101573.75;5043423;28;20027;-70
2023/01/02 11:27:41;;;;;;;13.57;4.60;;;;;;;9.69;100.00;101596.00;5043374;28;20039;-70
2023/01/02 11:30:22;;;;;;;11.20;4.70;;;;;;;9.69;100.00;101595.19;5042776;28;20075;-69
2023/01/02 11:33:00;;;;;;;10.50;4.68;;;;;;;9.66;100.00;101597.19;5043704;28;20048;-71